createdAt,value
2019-03-03T00:03:40.131Z,23.90
2019-03-03T00:08:40.773Z,28.93
2019-03-03T00:13:40.758Z,27.00
2019-03-03T00:18:40.795Z,23.80
2019-03-03T00:23:54.404Z,31.60
2019-03-03T00:28:54.052Z,21.43
2019-03-03T00:33:53.714Z,26.03
2019-03-03T00:39:10.081Z,26.77
2019-03-03T00:44:26.699Z,26.43
2019-03-03T00:49:44.150Z,24.83
2019-03-03T00:54:57.382Z,33.13
2019-03-03T01:00:07.563Z,24.30
2019-03-03T01:05:17.246Z,28.53
2019-03-03T01:10:24.667Z,23.93
2019-03-03T01:15:30.167Z,28.63
2019-03-03T01:20:35.986Z,26.67
2019-03-03T01:25:35.631Z,24.53
2019-03-03T01:30:35.362Z,22.10
2019-03-03T01:35:35.007Z,23.53
2019-03-03T01:40:34.653Z,21.33
2019-03-03T01:45:34.310Z,21.40
2019-03-03T01:50:34.042Z,20.10
2019-03-03T01:55:34.062Z,21.00
2019-03-03T02:00:34.757Z,18.50
2019-03-03T02:05:34.475Z,18.13
2019-03-03T02:10:34.361Z,17.80
2019-03-03T02:15:34.080Z,17.50
2019-03-03T02:20:34.103Z,17.20
2019-03-03T02:25:34.026Z,22.30
2019-03-03T02:30:34.101Z,16.70
2019-03-03T02:35:33.839Z,20.47
2019-03-03T02:40:33.639Z,20.57
2019-03-03T02:45:33.375Z,14.07
2019-03-03T02:50:34.291Z,10.40
2019-03-03T02:55:34.019Z,17.30
2019-03-03T03:00:35.880Z,12.80
2019-03-03T03:05:57.834Z,17.83
2019-03-03T03:11:35.143Z,15.50
2019-03-03T03:16:46.221Z,18.80
2019-03-03T03:22:13.888Z,15.87
2019-03-03T03:27:31.383Z,12.23
2019-03-03T03:32:36.269Z,12.90
2019-03-03T03:37:58.372Z,14.20
2019-03-03T03:43:02.701Z,11.07
2019-03-03T03:48:22.471Z,14.87
2019-03-03T03:53:35.307Z,13.20
2019-03-03T03:59:01.468Z,8.83
2019-03-03T04:04:11.128Z,12.67
2019-03-03T04:09:36.430Z,10.90
2019-03-03T04:14:51.226Z,9.03
2019-03-03T04:19:58.448Z,4.37
2019-03-03T04:25:16.146Z,8.17
2019-03-03T04:30:26.666Z,12.80
2019-03-03T04:35:41.650Z,12.00
2019-03-03T04:40:48.050Z,17.60
2019-03-03T04:46:03.938Z,9.03
2019-03-03T04:51:22.690Z,15.17
2019-03-03T04:56:39.334Z,13.83
2019-03-03T05:01:49.238Z,12.73
2019-03-03T05:07:20.407Z,14.40
2019-03-03T05:12:53.187Z,13.93
2019-03-03T05:18:04.744Z,11.97
2019-03-03T05:23:04.403Z,14.43
2019-03-03T05:28:04.192Z,14.97
2019-03-03T05:33:04.180Z,14.13
2019-03-03T05:38:03.907Z,10.83
2019-03-03T05:43:03.610Z,10.73
2019-03-03T05:48:03.270Z,14.47
2019-03-03T05:53:03.031Z,10.83
2019-03-03T05:58:02.696Z,9.57
2019-03-03T06:03:02.359Z,9.80
2019-03-03T06:08:02.394Z,11.00
2019-03-03T06:13:02.026Z,12.97
2019-03-03T06:18:01.967Z,6.47
2019-03-03T06:23:01.595Z,16.10
2019-03-03T06:28:01.230Z,11.23
2019-03-03T06:33:00.882Z,13.87
2019-03-03T06:38:00.513Z,13.70
2019-03-03T06:43:00.164Z,8.60
2019-03-03T06:47:59.810Z,5.37
2019-03-03T06:52:59.463Z,7.13
2019-03-03T06:57:59.109Z,8.70
2019-03-03T07:02:59.027Z,4.93
2019-03-03T07:07:58.641Z,9.40
2019-03-03T07:12:58.298Z,6.80
2019-03-03T07:17:57.964Z,6.47
2019-03-03T07:22:57.627Z,6.00
2019-03-03T07:27:57.639Z,5.00
2019-03-03T07:33:15.074Z,3.90
2019-03-03T07:38:16.014Z,5.40
2019-03-03T07:43:15.718Z,4.87
2019-03-03T07:48:15.743Z,6.50
2019-03-03T07:53:15.368Z,5.07
2019-03-03T07:58:15.022Z,5.47
2019-03-03T08:03:14.658Z,5.40
2019-03-03T08:08:14.290Z,4.17
2019-03-03T08:13:13.958Z,4.67
2019-03-03T08:18:13.848Z,5.77
2019-03-03T08:23:13.470Z,4.60
2019-03-03T08:28:13.143Z,6.17
2019-03-03T08:33:12.938Z,5.27
2019-03-03T08:38:12.967Z,6.70
2019-03-03T08:43:30.696Z,5.20
2019-03-03T08:48:48.299Z,4.13
2019-03-03T08:53:57.870Z,4.63
2019-03-03T08:59:22.862Z,6.93
2019-03-03T09:04:47.651Z,3.30
2019-03-03T09:10:03.022Z,3.77
2019-03-03T09:15:45.997Z,2.90
2019-03-03T09:21:19.827Z,3.83
2019-03-03T09:26:44.518Z,3.47
2019-03-03T09:32:02.111Z,3.33
2019-03-03T09:37:20.854Z,3.43
2019-03-03T09:42:39.766Z,4.27
2019-03-03T09:47:46.779Z,4.03
2019-03-03T09:52:58.190Z,4.13
2019-03-03T09:58:03.766Z,3.30
2019-03-03T10:03:18.562Z,3.60
2019-03-03T10:09:11.926Z,4.03
2019-03-03T10:14:29.454Z,4.40
2019-03-03T10:19:48.989Z,5.13
2019-03-03T10:25:00.630Z,4.43
2019-03-03T10:30:15.122Z,4.33
2019-03-03T10:35:27.450Z,6.83
2019-03-03T10:40:41.935Z,5.27
2019-03-03T10:45:50.875Z,7.50
2019-03-03T10:50:59.947Z,6.30
2019-03-03T10:56:49.554Z,9.50
2019-03-03T11:02:05.954Z,9.80
2019-03-03T11:07:17.970Z,12.50
2019-03-03T11:12:49.058Z,6.87
2019-03-03T11:18:01.443Z,7.47
2019-03-03T11:23:29.222Z,9.83
2019-03-03T11:28:41.758Z,8.50
2019-03-03T11:33:50.694Z,7.87
2019-03-03T11:39:08.801Z,7.30
2019-03-03T11:44:28.344Z,7.70
2019-03-03T11:49:34.017Z,5.70
2019-03-03T11:54:54.430Z,6.40
2019-03-03T12:00:03.683Z,4.00
2019-03-03T12:05:24.099Z,2.10
2019-03-03T12:10:41.834Z,2.87
2019-03-03T12:15:58.989Z,5.40
2019-03-03T12:21:05.169Z,3.80
2019-03-03T12:26:22.626Z,3.53
2019-03-03T12:31:47.822Z,3.27
2019-03-03T12:37:36.667Z,4.20
2019-03-03T12:42:54.124Z,4.63
2019-03-03T12:48:06.791Z,4.13
2019-03-03T12:53:24.549Z,2.77
2019-03-03T12:58:36.054Z,3.77
2019-03-03T13:03:43.238Z,3.23
2019-03-03T13:08:59.503Z,3.03
2019-03-03T13:14:19.365Z,3.67
2019-03-03T13:19:41.150Z,2.97
2019-03-03T13:25:14.845Z,3.23
2019-03-03T13:30:33.955Z,3.80
2019-03-03T13:35:51.475Z,3.73
2019-03-03T13:40:58.559Z,3.13
2019-03-03T13:45:59.340Z,2.53
2019-03-03T13:50:59.075Z,3.10
2019-03-03T13:55:58.697Z,2.20
2019-03-03T14:00:58.371Z,3.23
2019-03-03T14:05:58.242Z,3.73
2019-03-03T14:10:57.890Z,1.77
2019-03-03T14:15:57.535Z,2.47
2019-03-03T14:20:57.197Z,2.30
2019-03-03T14:25:56.847Z,2.00
2019-03-03T14:30:56.462Z,2.20
2019-03-03T14:35:56.094Z,3.03
2019-03-03T14:40:55.810Z,2.10
2019-03-03T14:45:55.502Z,3.30
2019-03-03T14:50:55.875Z,2.90
2019-03-03T14:55:55.502Z,2.77
2019-03-03T15:00:55.426Z,2.67
2019-03-03T15:05:56.150Z,2.80
2019-03-03T15:10:55.810Z,2.90
2019-03-03T15:15:55.838Z,2.57
2019-03-03T15:20:55.805Z,1.60
2019-03-03T15:25:55.521Z,3.03
2019-03-03T15:30:55.478Z,3.17
2019-03-03T15:35:55.086Z,3.07
2019-03-03T15:40:55.427Z,3.17
2019-03-03T15:45:55.322Z,5.20
2019-03-03T15:50:55.370Z,2.50
2019-03-03T15:55:55.005Z,3.50
2019-03-03T16:00:54.651Z,3.07
2019-03-03T16:05:54.298Z,3.37
2019-03-03T16:10:54.417Z,4.10
2019-03-03T16:15:54.419Z,6.03
2019-03-03T16:20:54.076Z,4.57
2019-03-03T16:25:53.714Z,4.57
2019-03-03T16:30:53.551Z,4.70
2019-03-03T16:35:53.430Z,4.30
2019-03-03T16:40:53.466Z,5.23
2019-03-03T16:45:53.443Z,4.23
2019-03-03T16:50:53.115Z,3.43
2019-03-03T16:55:52.767Z,5.27
2019-03-03T17:00:52.386Z,4.03
2019-03-03T17:05:52.246Z,6.90
2019-03-03T17:10:52.135Z,4.23
2019-03-03T17:15:51.758Z,5.20
2019-03-03T17:20:51.802Z,6.60
2019-03-03T17:25:51.538Z,7.10
2019-03-03T17:30:51.231Z,4.83
2019-03-03T17:35:51.592Z,4.27
2019-03-03T17:40:51.939Z,4.00
2019-03-03T17:45:51.650Z,4.67
2019-03-03T17:50:51.376Z,5.73
2019-03-03T17:55:51.582Z,3.37
2019-03-03T18:00:51.416Z,7.27
2019-03-03T18:05:51.243Z,4.33
2019-03-03T18:10:51.227Z,5.70
2019-03-03T18:15:51.254Z,4.57
2019-03-03T18:20:51.399Z,2.93
2019-03-03T18:25:51.111Z,2.77
2019-03-03T18:30:51.044Z,7.10
2019-03-03T18:35:52.484Z,3.20
2019-03-03T18:40:52.343Z,6.67
2019-03-03T18:45:52.088Z,7.03
2019-03-03T18:50:52.843Z,5.27
2019-03-03T18:55:52.571Z,7.50
2019-03-03T19:00:52.690Z,8.43
2019-03-03T19:05:55.607Z,8.73
2019-03-03T19:10:53.849Z,7.70
2019-03-03T19:15:53.491Z,7.50
2019-03-03T19:20:53.259Z,10.60
2019-03-03T19:25:53.240Z,5.57
2019-03-03T19:30:53.077Z,8.70
2019-03-03T19:35:53.714Z,9.90
2019-03-03T19:40:53.904Z,8.73
2019-03-03T19:45:53.652Z,12.43
2019-03-03T19:50:53.415Z,13.20
2019-03-03T19:55:53.125Z,12.87
2019-03-03T20:00:52.922Z,13.60
2019-03-03T20:05:53.049Z,11.73
2019-03-03T20:10:52.695Z,11.43
2019-03-03T20:15:52.334Z,11.60
2019-03-03T20:20:52.539Z,13.13
2019-03-03T20:25:52.602Z,11.27
2019-03-03T20:30:52.267Z,18.70
2019-03-03T20:35:52.206Z,8.27
2019-03-03T20:40:51.923Z,15.80
2019-03-03T20:45:51.622Z,14.47
2019-03-03T20:50:51.616Z,13.43
2019-03-03T20:55:51.278Z,16.37
2019-03-03T21:00:50.929Z,14.50
2019-03-03T21:05:50.791Z,14.00
2019-03-03T21:10:50.698Z,18.50
2019-03-03T21:15:50.350Z,12.27
2019-03-03T21:20:50.116Z,13.83
2019-03-03T21:25:50.028Z,14.13
2019-03-03T21:30:49.699Z,16.57
2019-03-03T21:35:49.339Z,17.20
2019-03-03T21:40:49.370Z,11.00
2019-03-03T21:45:49.086Z,8.90
2019-03-03T21:50:48.731Z,13.10
2019-03-03T21:55:49.711Z,14.33
2019-03-03T22:00:49.742Z,12.33
2019-03-03T22:05:49.379Z,14.97
2019-03-03T22:10:49.110Z,11.20
2019-03-03T22:15:48.752Z,8.10
2019-03-03T22:20:48.395Z,9.90
2019-03-03T22:25:48.034Z,14.00
2019-03-03T22:30:47.660Z,14.87
2019-03-03T22:35:48.271Z,7.57
2019-03-03T22:40:48.271Z,4.73
2019-03-03T22:45:47.949Z,3.37
2019-03-03T22:50:47.604Z,8.70
2019-03-03T22:55:47.266Z,10.33
2019-03-03T23:01:02.803Z,7.03
2019-03-03T23:06:30.204Z,4.93
2019-03-03T23:11:55.327Z,5.80
2019-03-03T23:17:41.078Z,10.90
2019-03-03T23:23:13.143Z,7.73
2019-03-03T23:28:12.770Z,11.00
2019-03-03T23:33:12.499Z,11.93
2019-03-03T23:38:12.217Z,8.43
2019-03-03T23:43:12.284Z,8.77
2019-03-03T23:48:11.942Z,13.93
2019-03-03T23:53:11.859Z,5.80
2019-03-03T23:58:11.505Z,6.63
